createdAt,value
2023-01-31T00:00:43.392Z,97349.16
2023-01-31T00:04:43.393Z,97363.63
2023-01-31T00:08:47.457Z,97344.53
2023-01-31T00:12:47.437Z,97316.63
2023-01-31T00:16:47.480Z,97333.31
2023-01-31T00:20:47.606Z,97355.59
2023-01-31T00:24:50.210Z,97361.28
2023-01-31T00:28:52.589Z,97337.66
2023-01-31T00:32:52.667Z,97305.09
2023-01-31T00:36:52.737Z,97348.63
2023-01-31T00:40:58.202Z,97350.34
2023-01-31T00:44:58.220Z,97363.38
2023-01-31T00:48:59.305Z,97356.13
2023-01-31T00:52:59.384Z,97366.00
2023-01-31T00:57:02.157Z,97381.66
2023-01-31T01:01:10.830Z,97361.63
2023-01-31T01:05:11.975Z,97375.69
2023-01-31T01:09:12.047Z,97385.72
2023-01-31T01:13:14.691Z,97389.53
2023-01-31T01:17:15.523Z,97383.06
2023-01-31T01:21:18.681Z,97388.09
2023-01-31T01:25:19.155Z,97386.63
2023-01-31T01:29:22.117Z,97393.41
2023-01-31T01:33:22.918Z,97410.97
2023-01-31T01:37:22.995Z,97393.97
2023-01-31T01:41:24.567Z,97390.78
2023-01-31T01:45:27.457Z,97414.84
2023-01-31T01:49:36.395Z,97405.88
2023-01-31T01:53:41.229Z,97417.88
2023-01-31T01:57:45.902Z,97405.69
2023-01-31T02:01:50.922Z,97407.44
2023-01-31T02:05:57.947Z,97412.53
2023-01-31T02:10:05.769Z,97412.72
2023-01-31T02:14:10.611Z,97425.28
2023-01-31T02:18:15.324Z,97434.16
2023-01-31T02:22:24.945Z,97440.66
2023-01-31T02:27:11.702Z,97448.59
2023-01-31T02:32:00.164Z,97447.22
2023-01-31T02:36:19.983Z,97447.28
2023-01-31T02:40:32.431Z,97452.28
2023-01-31T02:44:56.580Z,97454.38
2023-01-31T02:49:07.965Z,97457.50
2023-01-31T02:53:21.589Z,97443.88
2023-01-31T02:57:20.944Z,97449.66
2023-01-31T03:01:28.091Z,97448.72
2023-01-31T03:05:28.712Z,97449.75
2023-01-31T03:09:42.285Z,97457.41
2023-01-31T03:13:59.377Z,97457.16
2023-01-31T03:18:09.694Z,97472.78
2023-01-31T03:22:18.535Z,97493.13
2023-01-31T03:26:22.757Z,97480.19
2023-01-31T03:30:33.475Z,97489.75
2023-01-31T03:34:34.990Z,97496.59
2023-01-31T03:38:42.315Z,97494.41
2023-01-31T03:42:54.922Z,97491.34
2023-01-31T03:47:02.337Z,97520.63
2023-01-31T03:51:07.366Z,97518.72
2023-01-31T03:55:18.670Z,97522.94
2023-01-31T03:59:28.226Z,97533.16
2023-01-31T04:03:35.652Z,97509.56
2023-01-31T04:07:36.066Z,97542.97
2023-01-31T04:11:42.174Z,97556.03
2023-01-31T04:15:44.954Z,97556.03
2023-01-31T04:19:45.088Z,97560.78
2023-01-31T04:23:45.229Z,97560.41
2023-01-31T04:27:45.280Z,97569.56
2023-01-31T04:31:48.040Z,97559.94
2023-01-31T04:35:48.185Z,97573.22
2023-01-31T04:39:48.263Z,97568.81
2023-01-31T04:43:48.349Z,97572.84
2023-01-31T04:47:51.163Z,97569.88
2023-01-31T04:51:51.220Z,97554.34
2023-01-31T04:55:51.480Z,97571.03
2023-01-31T04:59:52.314Z,97580.38
2023-01-31T05:03:55.339Z,97578.69
2023-01-31T05:07:55.450Z,97575.38
2023-01-31T05:11:55.494Z,97580.38
2023-01-31T05:15:55.751Z,97565.81
2023-01-31T05:19:58.545Z,97552.19
2023-01-31T05:23:58.604Z,97556.91
2023-01-31T05:27:58.658Z,97568.41
2023-01-31T05:32:01.847Z,97569.91
2023-01-31T05:36:05.974Z,97529.22
2023-01-31T05:40:06.643Z,97570.22
2023-01-31T05:44:07.434Z,97570.25
2023-01-31T05:48:08.377Z,97577.00
2023-01-31T05:52:10.966Z,97562.44
2023-01-31T05:56:11.103Z,97575.63
2023-01-31T06:00:13.437Z,97576.63
2023-01-31T06:04:13.627Z,97574.00
2023-01-31T06:08:17.758Z,97584.72
2023-01-31T06:12:18.313Z,97591.66
2023-01-31T06:16:18.532Z,97584.81
2023-01-31T06:20:19.064Z,97588.53
2023-01-31T06:24:21.666Z,97591.28
2023-01-31T06:28:22.328Z,97557.22
2023-01-31T06:32:22.353Z,97592.09
2023-01-31T06:36:22.567Z,97606.84
2023-01-31T06:40:25.230Z,97616.09
2023-01-31T06:44:26.604Z,97612.84
2023-01-31T06:48:27.504Z,97608.28
2023-01-31T06:52:27.586Z,97586.06
2023-01-31T06:56:30.483Z,97610.28
2023-01-31T07:00:31.471Z,97606.19
2023-01-31T07:04:31.733Z,97613.88
2023-01-31T07:08:35.340Z,97619.72
2023-01-31T07:12:38.760Z,97640.09
2023-01-31T07:16:39.846Z,97633.28
2023-01-31T07:20:39.934Z,97620.06
2023-01-31T07:24:40.121Z,97646.78
2023-01-31T07:28:42.945Z,97632.31
2023-01-31T07:32:43.050Z,97627.53
2023-01-31T07:36:43.158Z,97637.34
2023-01-31T07:40:43.194Z,97622.13
2023-01-31T07:44:46.067Z,97631.88
2023-01-31T07:48:46.228Z,97621.50
2023-01-31T07:52:46.299Z,97612.97
2023-01-31T07:56:47.541Z,97634.72
2023-01-31T08:01:02.928Z,97646.91
2023-01-31T08:05:04.070Z,97643.03
2023-01-31T08:09:05.019Z,97653.13
2023-01-31T08:13:06.184Z,97657.13
2023-01-31T08:17:09.564Z,97673.16
2023-01-31T08:21:11.704Z,97664.50
2023-01-31T08:25:12.308Z,97669.28
2023-01-31T08:29:12.489Z,97673.75
2023-01-31T08:33:15.382Z,97665.34
2023-01-31T08:37:17.356Z,97658.94
2023-01-31T08:41:19.595Z,97673.72
2023-01-31T08:45:20.253Z,97669.03
2023-01-31T08:49:23.004Z,97662.81
2023-01-31T08:53:23.091Z,97671.28
2023-01-31T08:57:23.204Z,97669.16
2023-01-31T09:01:25.551Z,97663.44
2023-01-31T09:05:31.185Z,97653.78
2023-01-31T09:09:31.553Z,97672.31
2023-01-31T09:13:33.424Z,97661.25
2023-01-31T09:17:33.698Z,97663.88
2023-01-31T09:21:36.467Z,97654.03
2023-01-31T09:25:45.652Z,97653.50
2023-01-31T09:29:47.485Z,97654.13
2023-01-31T09:33:48.032Z,97664.47
2023-01-31T09:37:50.803Z,97664.09
2023-01-31T09:41:55.920Z,97648.13
2023-01-31T09:46:03.163Z,97659.69
2023-01-31T09:50:11.002Z,97674.44
2023-01-31T09:54:23.551Z,97647.38
2023-01-31T09:58:35.379Z,97650.00
2023-01-31T10:03:06.946Z,97660.31
2023-01-31T10:07:15.120Z,97649.22
2023-01-31T10:11:34.144Z,97661.09
2023-01-31T10:15:42.169Z,97668.06
2023-01-31T10:19:53.771Z,97658.63
2023-01-31T10:24:02.192Z,97651.66
2023-01-31T10:28:14.754Z,97647.09
2023-01-31T10:32:24.169Z,97647.84
2023-01-31T10:36:32.387Z,97632.44
2023-01-31T10:40:39.615Z,97627.25
2023-01-31T10:44:56.784Z,97609.50
2023-01-31T10:48:56.996Z,97599.94
2023-01-31T10:53:20.759Z,97604.44
2023-01-31T10:57:21.072Z,97587.72
2023-01-31T11:01:23.838Z,97569.81
2023-01-31T11:05:31.456Z,97554.03
2023-01-31T11:09:36.921Z,97563.91
2023-01-31T11:13:37.483Z,97562.34
2023-01-31T11:17:45.815Z,97558.53
2023-01-31T11:21:53.245Z,97538.53
2023-01-31T11:25:56.901Z,97524.44
2023-01-31T11:30:00.300Z,97517.72
2023-01-31T11:34:05.459Z,97498.00
2023-01-31T11:38:22.531Z,97503.22
2023-01-31T11:42:22.773Z,97537.47
2023-01-31T11:46:23.025Z,97520.16
2023-01-31T11:50:34.117Z,97501.78
2023-01-31T11:54:37.116Z,97521.06
2023-01-31T11:58:42.986Z,97492.50
2023-01-31T12:02:44.948Z,97490.44
2023-01-31T12:07:01.925Z,97480.28
2023-01-31T12:11:02.476Z,97452.38
2023-01-31T12:15:16.702Z,97453.88
2023-01-31T12:19:35.948Z,97444.88
2023-01-31T12:23:52.653Z,97424.00
2023-01-31T12:28:11.361Z,97439.84
2023-01-31T12:32:42.234Z,97450.00
2023-01-31T12:37:01.691Z,97420.03
2023-01-31T12:41:22.217Z,97408.00
2023-01-31T12:45:43.577Z,97435.50
2023-01-31T12:50:16.902Z,97441.91
2023-01-31T12:54:45.953Z,97439.47
2023-01-31T12:59:15.376Z,97460.53
2023-01-31T13:03:47.196Z,97447.13
2023-01-31T13:07:54.614Z,97438.75
2023-01-31T13:12:02.064Z,97464.44
2023-01-31T13:16:16.525Z,97468.78
2023-01-31T13:20:29.776Z,97481.66
2023-01-31T13:24:36.595Z,97453.09
2023-01-31T13:28:46.038Z,97472.28
2023-01-31T13:32:52.724Z,97448.69
2023-01-31T13:36:59.219Z,97417.38
2023-01-31T13:41:01.139Z,97425.44
2023-01-31T13:45:11.315Z,97440.53
2023-01-31T13:49:23.948Z,97419.91
2023-01-31T13:53:30.987Z,97428.13
2023-01-31T13:57:35.238Z,97432.31
2023-01-31T14:01:39.808Z,97417.28
2023-01-31T14:06:04.945Z,97356.56
2023-01-31T14:10:45.604Z,97398.66
2023-01-31T14:14:49.354Z,97374.22
2023-01-31T14:18:49.582Z,97390.03
2023-01-31T14:23:47.441Z,97376.59
2023-01-31T14:28:04.332Z,97382.66
2023-01-31T14:32:17.960Z,97379.97
2023-01-31T14:37:01.279Z,97387.59
2023-01-31T14:41:21.862Z,97368.97
2023-01-31T14:45:54.097Z,97367.31
2023-01-31T14:50:27.285Z,97360.72
2023-01-31T14:54:59.708Z,97336.81
2023-01-31T14:59:02.798Z,97352.72
2023-01-31T15:03:11.992Z,97381.13
2023-01-31T15:07:19.850Z,97359.22
2023-01-31T15:11:46.561Z,97346.69
2023-01-31T15:15:54.914Z,97326.91
2023-01-31T15:20:00.561Z,97325.03
2023-01-31T15:24:02.913Z,97325.34
2023-01-31T15:28:06.569Z,97322.66
2023-01-31T15:32:23.326Z,97328.28
2023-01-31T15:36:33.305Z,97326.56
2023-01-31T15:40:34.380Z,97324.53
2023-01-31T15:44:34.500Z,97317.72
2023-01-31T15:48:37.151Z,97329.91
2023-01-31T15:52:37.194Z,97357.31
2023-01-31T15:56:42.174Z,97363.47
2023-01-31T16:00:44.295Z,97353.16
2023-01-31T16:04:47.020Z,97365.13
2023-01-31T16:08:47.089Z,97352.63
2023-01-31T16:12:53.318Z,97362.72
2023-01-31T16:16:57.800Z,97364.03
2023-01-31T16:21:00.998Z,97366.97
2023-01-31T16:25:04.591Z,97343.50
2023-01-31T16:29:12.469Z,97354.25
2023-01-31T16:33:20.864Z,97351.94
2023-01-31T16:37:35.126Z,97354.63
2023-01-31T16:41:58.307Z,97366.50
2023-01-31T16:46:01.158Z,97363.47
2023-01-31T16:50:43.174Z,97351.66
2023-01-31T16:54:54.017Z,97368.41
2023-01-31T16:58:57.705Z,97364.28
2023-01-31T17:03:00.793Z,97365.97
2023-01-31T17:07:09.363Z,97359.09
2023-01-31T17:11:19.824Z,97356.28
2023-01-31T17:15:28.986Z,97353.72
2023-01-31T17:19:30.509Z,97345.91
2023-01-31T17:23:30.504Z,97347.53
2023-01-31T17:27:33.235Z,97353.53
2023-01-31T17:31:34.788Z,97340.13
2023-01-31T17:35:39.081Z,97338.94
2023-01-31T17:39:39.157Z,97338.13
2023-01-31T17:43:41.873Z,97331.31
2023-01-31T17:47:42.057Z,97325.81
2023-01-31T17:51:42.488Z,97312.84
2023-01-31T17:55:42.863Z,97323.16
2023-01-31T17:59:45.489Z,97332.94
2023-01-31T18:03:45.751Z,97330.03
2023-01-31T18:07:46.218Z,97337.81
2023-01-31T18:11:46.931Z,97326.06
2023-01-31T18:15:49.709Z,97277.06
2023-01-31T18:19:49.935Z,97313.53
2023-01-31T18:23:54.069Z,97284.59
